createdAt,value
2023-03-28T00:04:41.241Z,73.8
2023-03-28T00:19:51.543Z,73.1
2023-03-28T00:35:01.078Z,73.1
2023-03-28T00:50:10.440Z,73.3
2023-03-28T01:05:19.788Z,73.4
2023-03-28T01:20:28.955Z,73.5
2023-03-28T01:35:38.572Z,73.5
2023-03-28T01:50:48.500Z,73.5
2023-03-28T02:05:59.509Z,73.6
2023-03-28T02:21:08.830Z,73.7
2023-03-28T02:36:18.479Z,73.9
2023-03-28T02:51:28.295Z,73.7
2023-03-28T03:06:38.026Z,73.8
2023-03-28T03:21:47.544Z,73.8
2023-03-28T03:36:57.067Z,73.8
2023-03-28T03:52:06.716Z,73.9
2023-03-28T04:07:16.058Z,74
2023-03-28T04:22:25.047Z,74.1
2023-03-28T04:37:37.740Z,74.1
2023-03-28T04:52:48.260Z,74.3
2023-03-28T05:07:57.609Z,74.2
2023-03-28T05:23:07.240Z,74.1
2023-03-28T05:38:16.788Z,74.1
2023-03-28T05:53:26.086Z,74.1
2023-03-28T06:08:35.259Z,74.1
2023-03-28T06:23:44.957Z,74
2023-03-28T06:38:54.636Z,73.7
2023-03-28T06:54:04.535Z,73.5
2023-03-28T07:09:14.700Z,73.4
2023-03-28T07:24:24.810Z,73.4
2023-03-28T07:39:35.485Z,73.3
2023-03-28T07:54:45.334Z,72.1
2023-03-28T08:09:59.378Z,73
2023-03-28T08:25:09.606Z,72.7
2023-03-28T08:40:19.665Z,72.2
2023-03-28T08:55:29.757Z,72.2
2023-03-28T09:10:39.848Z,71.9
2023-03-28T09:25:50.259Z,71.8
2023-03-28T09:41:01.430Z,71.6
2023-03-28T09:56:10.856Z,71.5
2023-03-28T10:11:20.550Z,71.7
2023-03-28T10:26:30.274Z,71.6
2023-03-28T10:41:40.309Z,71
2023-03-28T10:56:50.458Z,70.7
2023-03-28T11:12:00.924Z,70.2
2023-03-28T11:27:17.107Z,70.2
2023-03-28T11:42:27.938Z,69.8
2023-03-28T11:57:37.371Z,69.6
2023-03-28T12:12:47.588Z,69
2023-03-28T12:27:58.353Z,68.9
2023-03-28T12:43:09.219Z,69.1
2023-03-28T12:58:19.428Z,66.5
2023-03-28T13:13:29.636Z,65.7
2023-03-28T13:28:38.372Z,67
2023-03-28T13:43:48.834Z,65.4
2023-03-28T13:58:58.512Z,65.4
2023-03-28T14:14:10.244Z,65.3
2023-03-28T14:29:21.130Z,62.3
2023-03-28T14:44:30.094Z,65
2023-03-28T14:59:39.619Z,65.3
2023-03-28T15:14:49.160Z,65.6
2023-03-28T15:29:58.182Z,66.8
2023-03-28T15:45:08.241Z,65.5
2023-03-28T16:00:19.494Z,60.3
2023-03-28T16:15:30.006Z,63.3
2023-03-28T16:30:39.748Z,64
2023-03-28T16:45:49.260Z,65.4
2023-03-28T17:00:58.784Z,67
2023-03-28T17:16:08.009Z,67.5
2023-03-28T17:31:18.680Z,67.7
2023-03-28T17:46:28.725Z,67.7
2023-03-28T18:01:38.682Z,67.7
2023-03-28T18:16:48.149Z,67.8
2023-03-28T18:31:58.622Z,67.8
2023-03-28T18:47:08.054Z,67.9
2023-03-28T19:02:17.445Z,67.9
2023-03-28T19:17:27.394Z,68
2023-03-28T19:32:38.429Z,68
2023-03-28T19:47:48.095Z,68.1
2023-03-28T20:03:00.679Z,68.1
2023-03-28T20:18:10.811Z,68.2
2023-03-28T20:33:20.230Z,68.2
2023-03-28T20:48:29.951Z,68.2
2023-03-28T21:03:39.571Z,68.2
2023-03-28T21:18:48.749Z,68.2
2023-03-28T21:33:58.452Z,68.2
2023-03-28T21:49:07.497Z,68.2
2023-03-28T22:04:17.500Z,68.3
2023-03-28T22:19:27.010Z,68.2
2023-03-28T22:34:36.887Z,68.2
2023-03-28T22:49:46.657Z,68.3
2023-03-28T23:04:56.449Z,68.2
2023-03-28T23:20:06.326Z,68.5
2023-03-28T23:35:16.053Z,68.7
2023-03-28T23:50:25.621Z,68.2
